Saint-Jude, Canada
Current Conditions -  °F | °C
As of 3:00 PM on Monday 22 Dec 2014 (Local Time) from CYHU Reporting Station
Broken Clouds Broken Clouds  
Wind Chill:   Ceiling: 3500
Heat Index: 19°   Visibility: 9mi
Dew Point: 14°   Wind: 14mph
Humidity: 80%   Direction: 30°NNE
Pressure: 30.36"   Gusts: NA
Location:  45.77°N, 72.98°W
Report Text: CYHU 222000Z AUTO 03012KT 9SM BKN035 BKN210 BKN230 M07/M10 A3036 RMK SLP283
Loading
Personal Weather Stations






























Interactive Weather Map New forecast layout! Learn more

10-Day Weather Forecast

Advertisements
Track Severe Weather on mobile